This is the latest recevied weather packets stored in our database for station/object DO7ZT-10. If no packets are shown the sender has not sent any weather packets the latest 10 day(s).
| Time | Temp. | Humidity | Pressure | Rain* | Wind** | Luminosity | Snow |
|---|---|---|---|---|---|---|---|
| 1777691891 | 7.22° C | 73% | 1024.4 hPa | - | - | - | - |
| 1777690991 | 6.67° C | 75% | 1024.5 hPa | - | - | - | - |
| 1777690091 | 7.22° C | 75% | 1024.6 hPa | - | - | - | - |
| 1777689191 | 7.22° C | 74% | 1024.7 hPa | - | - | - | - |
| 1777688291 | 7.22° C | 74% | 1024.7 hPa | - | - | - | - |
| 1777687391 | 7.22° C | 73% | 1024.7 hPa | - | - | - | - |
| 1777686491 | 7.22° C | 73% | 1024.8 hPa | - | - | - | - |
| 1777685591 | 7.22° C | 73% | 1024.9 hPa | - | - | - | - |
| 1777684691 | 7.78° C | 72% | 1025.1 hPa | - | - | - | - |
| 1777683791 | 7.78° C | 72% | 1025 hPa | - | - | - | - |
| 1777682891 | 7.22° C | 73% | 1025.1 hPa | - | - | - | - |
| 1777681991 | 7.78° C | 71% | 1025.1 hPa | - | - | - | - |
| 1777681091 | 7.78° C | 71% | 1025.2 hPa | - | - | - | - |
| 1777680191 | 8.33° C | 69% | 1025.2 hPa | - | - | - | - |
| 1777679291 | 7.78° C | 71% | 1025.3 hPa | - | - | - | - |
| 1777678390 | 8.33° C | 70% | 1025.4 hPa | - | - | - | - |
| 1777677490 | 8.33° C | 69% | 1025.5 hPa | - | - | - | - |
| 1777676591 | 8.33° C | 69% | 1025.5 hPa | - | - | - | - |
| 1777675690 | 8.33° C | 70% | 1025.5 hPa | - | - | - | - |
| 1777674790 | 8.89° C | 65% | 1025.4 hPa | - | - | - | - |
| 1777673891 | 8.89° C | 68% | 1025.5 hPa | - | - | - | - |
| 1777672990 | 10° C | 64% | 1025.6 hPa | - | - | - | - |
| 1777672090 | 9.44° C | 66% | 1025.5 hPa | - | - | - | - |
| 1777671190 | 9.44° C | 66% | 1025.7 hPa | - | - | - | - |
| 1777670290 | 10° C | 65% | 1025.6 hPa | - | - | - | - |
* Rain since midnight (hover to see other rain measurements)
** Current wind speed in m/s (hover to see current wind gust speed)